sensor_id;sensor_type;location;lat;lon;timestamp;pressure;altitude;pressure_sealevel;temperature;humidity
64544;BME280;50936;51.660;5.616;2022-10-31T00:01:29;101716.97;;;13.60;100.00
64544;BME280;50936;51.660;5.616;2022-10-31T00:03:58;101698.19;;;13.57;100.00
64544;BME280;50936;51.660;5.616;2022-10-31T00:06:26;101705.69;;;13.54;100.00
64544;BME280;50936;51.660;5.616;2022-10-31T00:09:01;101708.59;;;13.51;100.00
64544;BME280;50936;51.660;5.616;2022-10-31T00:11:31;101716.75;;;13.51;100.00
64544;BME280;50936;51.660;5.616;2022-10-31T00:13:58;101712.28;;;13.50;100.00
64544;BME280;50936;51.660;5.616;2022-10-31T00:16:26;101716.19;;;13.45;100.00
64544;BME280;50936;51.660;5.616;2022-10-31T00:19:00;101714.66;;;13.41;100.00
64544;BME280;50936;51.660;5.616;2022-10-31T00:21:29;101713.13;;;13.37;100.00
64544;BME280;50936;51.660;5.616;2022-10-31T00:23:58;101717.97;;;13.32;100.00
64544;BME280;50936;51.660;5.616;2022-10-31T00:26:27;101715.28;;;13.32;100.00
64544;BME280;50936;51.660;5.616;2022-10-31T00:28:58;101718.34;;;13.26;100.00
64544;BME280;50936;51.660;5.616;2022-10-31T00:31:26;101719.53;;;13.22;100.00
64544;BME280;50936;51.660;5.616;2022-10-31T00:33:53;101716.06;;;13.20;100.00
64544;BME280;50936;51.660;5.616;2022-10-31T00:36:20;101720.91;;;13.15;100.00
64544;BME280;50936;51.660;5.616;2022-10-31T00:38:47;101716.84;;;13.07;100.00
64544;BME280;50936;51.660;5.616;2022-10-31T00:41:16;101715.53;;;13.00;100.00
64544;BME280;50936;51.660;5.616;2022-10-31T00:43:44;101716.03;;;12.93;100.00
64544;BME280;50936;51.660;5.616;2022-10-31T00:46:12;101712.88;;;12.86;100.00
64544;BME280;50936;51.660;5.616;2022-10-31T00:48:40;101710.53;;;12.80;100.00
64544;BME280;50936;51.660;5.616;2022-10-31T00:51:07;101697.41;;;12.74;100.00
64544;BME280;50936;51.660;5.616;2022-10-31T00:53:34;101703.19;;;12.67;100.00
64544;BME280;50936;51.660;5.616;2022-10-31T00:56:01;101701.66;;;12.63;100.00
64544;BME280;50936;51.660;5.616;2022-10-31T00:58:28;101702.84;;;12.59;100.00
64544;BME280;50936;51.660;5.616;2022-10-31T01:00:55;101694.91;;;12.56;100.00
64544;BME280;50936;51.660;5.616;2022-10-31T01:03:24;101704.09;;;12.54;100.00
64544;BME280;50936;51.660;5.616;2022-10-31T01:06:14;101709.63;;;12.52;100.00
64544;BME280;50936;51.660;5.616;2022-10-31T01:08:42;101711.16;;;12.56;100.00
64544;BME280;50936;51.660;5.616;2022-10-31T01:11:15;101713.50;;;12.62;100.00
64544;BME280;50936;51.660;5.616;2022-10-31T01:13:43;101708.44;;;12.70;100.00
64544;BME280;50936;51.660;5.616;2022-10-31T01:16:14;101710.28;;;12.70;100.00
64544;BME280;50936;51.660;5.616;2022-10-31T01:18:42;101715.59;;;12.71;100.00
64544;BME280;50936;51.660;5.616;2022-10-31T01:21:18;101707.38;;;12.73;100.00
64544;BME280;50936;51.660;5.616;2022-10-31T01:23:52;101699.34;;;12.71;100.00
64544;BME280;50936;51.660;5.616;2022-10-31T01:26:22;101683.47;;;12.65;100.00
64544;BME280;50936;51.660;5.616;2022-10-31T01:28:54;101690.38;;;12.57;100.00
64544;BME280;50936;51.660;5.616;2022-10-31T01:31:24;101687.94;;;12.52;100.00
64544;BME280;50936;51.660;5.616;2022-10-31T01:33:53;101677.50;;;12.46;100.00
64544;BME280;50936;51.660;5.616;2022-10-31T01:36:23;101681.56;;;12.39;100.00
64544;BME280;50936;51.660;5.616;2022-10-31T01:38:53;101683.50;;;12.37;100.00
64544;BME280;50936;51.660;5.616;2022-10-31T01:41:26;101679.81;;;12.38;100.00
64544;BME280;50936;51.660;5.616;2022-10-31T01:43:57;101678.78;;;12.40;100.00
64544;BME280;50936;51.660;5.616;2022-10-31T01:49:31;101682.34;;;12.55;100.00
64544;BME280;50936;51.660;5.616;2022-10-31T01:54:39;101698.38;;;12.58;100.00
64544;BME280;50936;51.660;5.616;2022-10-31T01:57:12;101702.84;;;12.59;100.00
64544;BME280;50936;51.660;5.616;2022-10-31T01:59:45;101700.31;;;12.56;100.00
64544;BME280;50936;51.660;5.616;2022-10-31T02:02:17;101697.06;;;12.51;100.00
64544;BME280;50936;51.660;5.616;2022-10-31T02:04:46;101708.66;;;12.53;100.00
64544;BME280;50936;51.660;5.616;2022-10-31T02:07:21;101694.22;;;12.52;100.00
64544;BME280;50936;51.660;5.616;2022-10-31T02:09:57;101694.22;;;12.52;100.00
64544;BME280;50936;51.660;5.616;2022-10-31T02:12:25;101692.28;;;12.55;100.00
64544;BME280;50936;51.660;5.616;2022-10-31T02:14:58;101695.97;;;12.54;100.00
64544;BME280;50936;51.660;5.616;2022-10-31T02:17:26;101686.22;;;12.51;100.00
64544;BME280;50936;51.660;5.616;2022-10-31T02:20:09;101691.81;;;12.48;100.00
64544;BME280;50936;51.660;5.616;2022-10-31T02:26:36;101683.88;;;12.30;100.00
64544;BME280;50936;51.660;5.616;2022-10-31T02:32:33;101688.53;;;12.14;100.00
64544;BME280;50936;51.660;5.616;2022-10-31T02:37:57;101683.50;;;12.08;100.00
64544;BME280;50936;51.660;5.616;2022-10-31T02:40:48;101680.72;;;12.09;100.00
64544;BME280;50936;51.660;5.616;2022-10-31T02:43:38;101677.00;;;12.10;100.00
64544;BME280;50936;51.660;5.616;2022-10-31T02:46:40;101672.59;;;12.09;100.00
64544;BME280;50936;51.660;5.616;2022-10-31T02:49:29;101680.72;;;12.09;100.00
64544;BME280;50936;51.660;5.616;2022-10-31T02:52:13;101682.44;;;12.10;100.00
64544;BME280;50936;51.660;5.616;2022-10-31T02:55:42;101689.88;;;12.07;100.00
64544;BME280;50936;51.660;5.616;2022-10-31T02:58:11;101691.44;;;11.97;100.00
64544;BME280;50936;51.660;5.616;2022-10-31T03:01:16;101685.78;;;11.85;100.00
64544;BME280;50936;51.660;5.616;2022-10-31T03:04:11;101687.13;;;11.78;100.00
64544;BME280;50936;51.660;5.616;2022-10-31T03:07:25;101690.19;;;11.72;100.00
64544;BME280;50936;51.660;5.616;2022-10-31T03:10:42;101693.09;;;11.69;100.00
64544;BME280;50936;51.660;5.616;2022-10-31T03:15:50;101684.00;;;11.70;100.00
64544;BME280;50936;51.660;5.616;2022-10-31T03:18:29;101689.22;;;11.73;100.00
64544;BME280;50936;51.660;5.616;2022-10-31T03:21:14;101683.81;;;11.73;100.00
64544;BME280;50936;51.660;5.616;2022-10-31T03:23:51;101694.47;;;11.76;100.00
64544;BME280;50936;51.660;5.616;2022-10-31T03:26:21;101696.97;;;11.79;100.00
64544;BME280;50936;51.660;5.616;2022-10-31T03:28:56;101686.13;;;11.79;100.00
64544;BME280;50936;51.660;5.616;2022-10-31T03:31:31;101697.94;;;11.78;100.00
64544;BME280;50936;51.660;5.616;2022-10-31T03:34:06;101692.72;;;11.75;100.00
64544;BME280;50936;51.660;5.616;2022-10-31T03:36:37;101690.94;;;11.74;100.00
64544;BME280;50936;51.660;5.616;2022-10-31T03:39:09;101687.59;;;11.70;100.00
64544;BME280;50936;51.660;5.616;2022-10-31T03:41:43;101687.00;;;11.65;100.00
64544;BME280;50936;51.660;5.616;2022-10-31T03:44:17;101683.78;;;11.59;100.00
64544;BME280;50936;51.660;5.616;2022-10-31T03:46:56;101677.97;;;11.50;100.00
64544;BME280;50936;51.660;5.616;2022-10-31T03:49:23;101680.25;;;11.42;100.00
64544;BME280;50936;51.660;5.616;2022-10-31T03:52:08;101691.44;;;11.36;100.00
64544;BME280;50936;51.660;5.616;2022-10-31T03:54:57;101686.38;;;11.30;100.00
64544;BME280;50936;51.660;5.616;2022-10-31T04:00:19;101685.28;;;11.18;100.00
64544;BME280;50936;51.660;5.616;2022-10-31T04:02:55;101683.81;;;11.12;100.00
64544;BME280;50936;51.660;5.616;2022-10-31T04:05:32;101682.25;;;11.08;100.00
64544;BME280;50936;51.660;5.616;2022-10-31T04:08:04;101675.25;;;11.04;100.00
64544;BME280;50936;51.660;5.616;2022-10-31T04:10:37;101681.03;;;10.98;100.00
64544;BME280;50936;51.660;5.616;2022-10-31T04:13:11;101674.06;;;10.94;100.00
64544;BME280;50936;51.660;5.616;2022-10-31T04:15:50;101677.09;;;10.88;100.00
64544;BME280;50936;51.660;5.616;2022-10-31T04:18:23;101680.94;;;10.84;100.00
64544;BME280;50936;51.660;5.616;2022-10-31T04:21:00;101682.88;;;10.82;100.00
64544;BME280;50936;51.660;5.616;2022-10-31T04:23:29;101687.50;;;10.79;100.00
64544;BME280;50936;51.660;5.616;2022-10-31T04:25:58;101686.72;;;10.77;100.00
64544;BME280;50936;51.660;5.616;2022-10-31T04:28:25;101687.84;;;10.73;100.00
64544;BME280;50936;51.660;5.616;2022-10-31T04:30:52;101686.25;;;10.69;100.00
64544;BME280;50936;51.660;5.616;2022-10-31T04:33:19;101677.38;;;10.67;100.00
64544;BME280;50936;51.660;5.616;2022-10-31T04:35:47;101679.31;;;10.65;100.00
64544;BME280;50936;51.660;5.616;2022-10-31T04:38:14;101680.34;;;10.63;100.00
64544;BME280;50936;51.660;5.616;2022-10-31T04:40:42;101674.94;;;10.63;100.00
64544;BME280;50936;51.660;5.616;2022-10-31T04:43:27;101669.56;;;10.63;100.00
64544;BME280;50936;51.660;5.616;2022-10-31T04:45:54;101680.28;;;10.64;100.00
64544;BME280;50936;51.660;5.616;2022-10-31T04:48:21;101682.97;;;10.64;100.00
64544;BME280;50936;51.660;5.616;2022-10-31T04:50:48;101684.69;;;10.65;100.00
64544;BME280;50936;51.660;5.616;2022-10-31T04:53:15;101682.63;;;10.70;100.00
64544;BME280;50936;51.660;5.616;2022-10-31T04:56:08;101682.47;;;10.73;100.00
64544;BME280;50936;51.660;5.616;2022-10-31T04:58:39;101671.66;;;10.73;100.00
64544;BME280;50936;51.660;5.616;2022-10-31T05:01:08;101678.94;;;10.71;100.00
64544;BME280;50936;51.660;5.616;2022-10-31T05:03:35;101673.72;;;10.68;100.00
64544;BME280;50936;51.660;5.616;2022-10-31T05:06:02;101673.91;;;10.65;100.00
64544;BME280;50936;51.660;5.616;2022-10-31T05:08:29;101669.47;;;10.64;100.00
64544;BME280;50936;51.660;5.616;2022-10-31T05:10:59;101667.72;;;10.63;100.00
64544;BME280;50936;51.660;5.616;2022-10-31T05:13:31;101673.03;;;10.65;100.00
64544;BME280;50936;51.660;5.616;2022-10-31T05:16:19;101668.13;;;10.71;100.00
64544;BME280;50936;51.660;5.616;2022-10-31T05:19:21;101661.00;;;10.70;100.00
64544;BME280;50936;51.660;5.616;2022-10-31T05:22:22;101659.44;;;10.66;100.00
64544;BME280;50936;51.660;5.616;2022-10-31T05:24:49;101655.97;;;10.64;100.00
64544;BME280;50936;51.660;5.616;2022-10-31T05:27:16;101656.13;;;10.61;100.00
64544;BME280;50936;51.660;5.616;2022-10-31T05:29:43;101660.91;;;10.56;100.00
64544;BME280;50936;51.660;5.616;2022-10-31T05:32:10;101655.66;;;10.53;100.00
64544;BME280;50936;51.660;5.616;2022-10-31T05:35:03;101658.38;;;10.53;100.00
64544;BME280;50936;51.660;5.616;2022-10-31T05:37:51;101660.75;;;10.59;100.00
64544;BME280;50936;51.660;5.616;2022-10-31T05:40:20;101660.38;;;10.65;100.00
64544;BME280;50936;51.660;5.616;2022-10-31T05:42:51;101654.75;;;10.70;100.00
64544;BME280;50936;51.660;5.616;2022-10-31T05:45:21;101654.47;;;10.74;100.00
64544;BME280;50936;51.660;5.616;2022-10-31T05:48:01;101648.88;;;10.77;100.00
64544;BME280;50936;51.660;5.616;2022-10-31T05:51:01;101641.41;;;10.83;100.00
64544;BME280;50936;51.660;5.616;2022-10-31T05:53:27;101647.56;;;10.85;100.00
64544;BME280;50936;51.660;5.616;2022-10-31T05:55:54;101643.91;;;10.86;100.00
64544;BME280;50936;51.660;5.616;2022-10-31T05:58:21;101640.25;;;10.87;100.00
64544;BME280;50936;51.660;5.616;2022-10-31T06:00:57;101644.78;;;10.86;100.00
64544;BME280;50936;51.660;5.616;2022-10-31T06:03:24;101640.25;;;10.87;100.00
64544;BME280;50936;51.660;5.616;2022-10-31T06:05:55;101644.78;;;10.86;100.00
64544;BME280;50936;51.660;5.616;2022-10-31T06:08:31;101643.03;;;10.85;100.00
64544;BME280;50936;51.660;5.616;2022-10-31T06:11:02;101644.88;;;10.85;100.00
64544;BME280;50936;51.660;5.616;2022-10-31T06:14:05;101637.53;;;10.87;100.00
64544;BME280;50936;51.660;5.616;2022-10-31T06:16:40;101643.72;;;10.89;100.00
64544;BME280;50936;51.660;5.616;2022-10-31T06:19:33;101640.94;;;10.90;100.00
64544;BME280;50936;51.660;5.616;2022-10-31T06:22:00;101641.81;;;10.91;100.00
64544;BME280;50936;51.660;5.616;2022-10-31T06:24:29;101640.09;;;10.90;100.00
64544;BME280;50936;51.660;5.616;2022-10-31T06:27:04;101640.25;;;10.87;100.00
64544;BME280;50936;51.660;5.616;2022-10-31T06:29:32;101640.41;;;10.84;100.00
64544;BME280;50936;51.660;5.616;2022-10-31T06:32:04;101637.31;;;10.75;100.00
64544;BME280;50936;51.660;5.616;2022-10-31T06:34:37;101638.41;;;10.71;100.00
64544;BME280;50936;51.660;5.616;2022-10-31T06:37:07;101641.31;;;10.68;100.00
64544;BME280;50936;51.660;5.616;2022-10-31T06:39:36;101638.78;;;10.65;100.00
64544;BME280;50936;51.660;5.616;2022-10-31T06:42:03;101643.41;;;10.63;100.00
64544;BME280;50936;51.660;5.616;2022-10-31T06:44:32;101641.63;;;10.62;100.00
64544;BME280;50936;51.660;5.616;2022-10-31T06:46:59;101639.06;;;10.61;100.00
64544;BME280;50936;51.660;5.616;2022-10-31T06:49:46;101650.88;;;10.58;100.00
64544;BME280;50936;51.660;5.616;2022-10-31T06:52:15;101640.09;;;10.58;100.00
64544;BME280;50936;51.660;5.616;2022-10-31T06:54:42;101649.75;;;10.62;100.00
64544;BME280;50936;51.660;5.616;2022-10-31T06:57:09;101644.09;;;10.67;100.00
64544;BME280;50936;51.660;5.616;2022-10-31T06:59:37;101645.66;;;10.71;100.00
64544;BME280;50936;51.660;5.616;2022-10-31T07:02:04;101647.22;;;10.75;100.00
64544;BME280;50936;51.660;5.616;2022-10-31T07:04:32;101642.50;;;10.78;100.00
64544;BME280;50936;51.660;5.616;2022-10-31T07:07:00;101638.78;;;10.81;100.00
64544;BME280;50936;51.660;5.616;2022-10-31T07:09:26;101646.59;;;10.86;100.00
64544;BME280;50936;51.660;5.616;2022-10-31T07:11:55;101646.34;;;10.90;100.00
64544;BME280;50936;51.660;5.616;2022-10-31T07:14:22;101648.75;;;10.95;100.00
64544;BME280;50936;51.660;5.616;2022-10-31T07:16:51;101648.44;;;11.01;100.00
64544;BME280;50936;51.660;5.616;2022-10-31T07:19:23;101648.06;;;11.07;100.00
64544;BME280;50936;51.660;5.616;2022-10-31T07:21:51;101640.56;;;11.12;100.00
64544;BME280;50936;51.660;5.616;2022-10-31T07:24:17;101647.34;;;11.20;100.00
64544;BME280;50936;51.660;5.616;2022-10-31T07:27:10;101645.13;;;11.26;100.00
64544;BME280;50936;51.660;5.616;2022-10-31T07:29:37;101650.28;;;11.31;100.00
64544;BME280;50936;51.660;5.616;2022-10-31T07:32:04;101650.88;;;11.36;100.00
64544;BME280;50936;51.660;5.616;2022-10-31T07:34:33;101658.59;;;11.42;100.00
64544;BME280;50936;51.660;5.616;2022-10-31T07:37:15;101653.03;;;11.45;100.00
64544;BME280;50936;51.660;5.616;2022-10-31T07:39:42;101658.22;;;11.48;100.00
64544;BME280;50936;51.660;5.616;2022-10-31T07:42:09;101652.66;;;11.51;100.00
64544;BME280;50936;51.660;5.616;2022-10-31T07:44:41;101655.25;;;11.53;100.00
64544;BME280;50936;51.660;5.616;2022-10-31T07:47:57;101666.94;;;11.53;100.00
64544;BME280;50936;51.660;5.616;2022-10-31T07:50:52;101670.41;;;11.55;100.00
64544;BME280;50936;51.660;5.616;2022-10-31T07:53:45;101668.41;;;11.59;100.00
64544;BME280;50936;51.660;5.616;2022-10-31T07:56:21;101674.50;;;11.63;100.00
64544;BME280;50936;51.660;5.616;2022-10-31T07:58:48;101671.63;;;11.66;100.00
64544;BME280;50936;51.660;5.616;2022-10-31T08:01:15;101667.75;;;11.70;100.00
64544;BME280;50936;51.660;5.616;2022-10-31T08:03:51;101660.22;;;11.75;100.00
64544;BME280;50936;51.660;5.616;2022-10-31T08:06:38;101670.66;;;11.81;100.00
64544;BME280;50936;51.660;5.616;2022-10-31T08:09:23;101671.25;;;11.86;100.00
64544;BME280;50936;51.660;5.616;2022-10-31T08:11:52;101663.75;;;11.91;100.00
64544;BME280;50936;51.660;5.616;2022-10-31T08:14:19;101673.25;;;11.99;100.00
64544;BME280;50936;51.660;5.616;2022-10-31T08:16:49;101677.31;;;12.06;100.00
64544;BME280;50936;51.660;5.616;2022-10-31T08:19:16;101670.56;;;12.13;100.00
64544;BME280;50936;51.660;5.616;2022-10-31T08:21:43;101661.06;;;12.20;100.00
64544;BME280;50936;51.660;5.616;2022-10-31T08:24:10;101663.47;;;12.25;100.00
64544;BME280;50936;51.660;5.616;2022-10-31T08:26:38;101663.97;;;12.31;100.00
64544;BME280;50936;51.660;5.616;2022-10-31T08:29:08;101659.91;;;12.39;100.00
64544;BME280;50936;51.660;5.616;2022-10-31T08:31:36;101670.06;;;12.49;100.00
64544;BME280;50936;51.660;5.616;2022-10-31T08:34:26;101668.38;;;12.61;100.00
64544;BME280;50936;51.660;5.616;2022-10-31T08:37:11;101659.25;;;12.77;100.00
64544;BME280;50936;51.660;5.616;2022-10-31T08:39:42;101652.91;;;12.90;100.00
64544;BME280;50936;51.660;5.616;2022-10-31T08:42:09;101639.59;;;13.00;100.00
64544;BME280;50936;51.660;5.616;2022-10-31T08:44:38;101643.25;;;13.14;100.00
64544;BME280;50936;51.660;5.616;2022-10-31T08:47:04;101645.09;;;13.26;100.00
64544;BME280;50936;51.660;5.616;2022-10-31T08:49:33;101657.66;;;13.41;100.00
64544;BME280;50936;51.660;5.616;2022-10-31T08:52:01;101655.63;;;13.58;100.00
64544;BME280;50936;51.660;5.616;2022-10-31T08:54:33;101657.06;;;13.76;100.00
64544;BME280;50936;51.660;5.616;2022-10-31T08:57:18;101655.97;;;13.92;100.00
64544;BME280;50936;51.660;5.616;2022-10-31T08:59:46;101641.09;;;13.97;100.00
64544;BME280;50936;51.660;5.616;2022-10-31T09:02:24;101614.38;;;14.04;100.00
64544;BME280;50936;51.660;5.616;2022-10-31T09:04:56;101588.06;;;14.04;100.00
64544;BME280;50936;51.660;5.616;2022-10-31T09:07:22;101588.97;;;14.05;100.00
64544;BME280;50936;51.660;5.616;2022-10-31T09:09:49;101602.41;;;14.06;100.00
64544;BME280;50936;51.660;5.616;2022-10-31T09:12:18;101600.69;;;14.05;100.00
64544;BME280;50936;51.660;5.616;2022-10-31T09:15:08;101606.97;;;14.06;100.00
64544;BME280;50936;51.660;5.616;2022-10-31T09:17:53;101612.00;;;14.12;100.00
64544;BME280;50936;51.660;5.616;2022-10-31T09:20:36;101605.44;;;14.15;100.00
64544;BME280;50936;51.660;5.616;2022-10-31T09:23:10;101611.53;;;14.18;100.00
64544;BME280;50936;51.660;5.616;2022-10-31T09:25:40;101609.56;;;14.20;100.00
64544;BME280;50936;51.660;5.616;2022-10-31T09:28:29;101603.91;;;14.23;100.00
64544;BME280;50936;51.660;5.616;2022-10-31T09:31:05;101620.63;;;14.30;100.00
64544;BME280;50936;51.660;5.616;2022-10-31T09:33:55;101637.44;;;14.48;100.00
64544;BME280;50936;51.660;5.616;2022-10-31T09:36:45;101624.47;;;14.65;100.00
64544;BME280;50936;51.660;5.616;2022-10-31T09:39:17;101607.25;;;14.77;100.00
64544;BME280;50936;51.660;5.616;2022-10-31T09:44:51;101594.94;;;14.84;100.00
64544;BME280;50936;51.660;5.616;2022-10-31T09:50:52;101582.63;;;14.91;100.00
64544;BME280;50936;51.660;5.616;2022-10-31T09:56:44;101559.63;;;14.95;100.00
64544;BME280;50936;51.660;5.616;2022-10-31T09:59:18;101553.81;;;15.00;100.00
64544;BME280;50936;51.660;5.616;2022-10-31T10:01:54;101563.84;;;14.99;100.00
64544;BME280;50936;51.660;5.616;2022-10-31T10:04:49;101564.69;;;15.00;100.00
64544;BME280;50936;51.660;5.616;2022-10-31T10:14:30;101562.75;;;15.02;100.00
64544;BME280;50936;51.660;5.616;2022-10-31T10:23:43;101550.91;;;15.14;100.00
64544;BME280;50936;51.660;5.616;2022-10-31T10:25:51;101535.84;;;15.21;100.00
64544;BME280;50936;51.660;5.616;2022-10-31T10:28:37;101535.00;;;15.32;100.00
64544;BME280;50936;51.660;5.616;2022-10-31T10:31:16;101530.19;;;15.47;100.00
64544;BME280;50936;51.660;5.616;2022-10-31T10:36:30;101516.47;;;15.71;100.00
64544;BME280;50936;51.660;5.616;2022-10-31T10:39:13;101512.91;;;15.82;100.00
64544;BME280;50936;51.660;5.616;2022-10-31T10:41:47;101513.06;;;15.92;100.00
64544;BME280;50936;51.660;5.616;2022-10-31T10:44:37;101509.06;;;15.96;100.00
64544;BME280;50936;51.660;5.616;2022-10-31T10:47:38;101505.09;;;16.00;100.00
64544;BME280;50936;51.660;5.616;2022-10-31T10:50:23;101497.94;;;15.99;100.00
64544;BME280;50936;51.660;5.616;2022-10-31T10:56:40;101493.44;;;16.09;100.00
64544;BME280;50936;51.660;5.616;2022-10-31T10:59:19;101498.41;;;16.15;100.00
64544;BME280;50936;51.660;5.616;2022-10-31T11:01:50;101497.16;;;16.20;100.00
64544;BME280;50936;51.660;5.616;2022-10-31T11:04:31;101497.66;;;16.25;100.00
64544;BME280;50936;51.660;5.616;2022-10-31T11:07:08;101502.56;;;16.31;100.00
64544;BME280;50936;51.660;5.616;2022-10-31T11:09:37;101496.34;;;16.40;100.00
64544;BME280;50936;51.660;5.616;2022-10-31T11:12:18;101483.81;;;16.49;100.00
64544;BME280;50936;51.660;5.616;2022-10-31T11:14:58;101477.56;;;16.58;100.00
64544;BME280;50936;51.660;5.616;2022-10-31T11:17:48;101473.22;;;16.67;100.00
64544;BME280;50936;51.660;5.616;2022-10-31T11:22:46;101483.16;;;16.78;100.00
64544;BME280;50936;51.660;5.616;2022-10-31T11:25:22;101485.66;;;16.81;100.00
64544;BME280;50936;51.660;5.616;2022-10-31T11:28:05;101477.34;;;16.82;100.00
64544;BME280;50936;51.660;5.616;2022-10-31T11:30:43;101461.47;;;16.87;100.00
64544;BME280;50936;51.660;5.616;2022-10-31T11:33:39;101457.47;;;16.91;100.00
64544;BME280;50936;51.660;5.616;2022-10-31T11:36:23;101452.03;;;16.91;100.00
64544;BME280;50936;51.660;5.616;2022-10-31T11:38:53;101450.03;;;16.93;100.00
64544;BME280;50936;51.660;5.616;2022-10-31T11:41:27;101435.09;;;16.98;100.00
64544;BME280;50936;51.660;5.616;2022-10-31T11:44:00;101419.19;;;17.03;100.00
64544;BME280;50936;51.660;5.616;2022-10-31T11:46:39;101405.28;;;17.06;100.00
64544;BME280;50936;51.660;5.616;2022-10-31T11:51:55;101403.94;;;17.21;100.00
64544;BME280;50936;51.660;5.616;2022-10-31T11:54:30;101394.91;;;17.30;100.00
64544;BME280;50936;51.660;5.616;2022-10-31T11:57:01;101403.81;;;17.32;100.00
64544;BME280;50936;51.660;5.616;2022-10-31T11:59:32;101403.44;;;17.37;100.00
64544;BME280;50936;51.660;5.616;2022-10-31T12:02:01;101391.56;;;17.48;100.00
64544;BME280;50936;51.660;5.616;2022-10-31T12:04:33;101386.25;;;17.56;100.00
64544;BME280;50936;51.660;5.616;2022-10-31T12:07:12;101384.22;;;17.58;100.00
64544;BME280;50936;51.660;5.616;2022-10-31T12:09:40;101376.03;;;17.58;100.00
64544;BME280;50936;51.660;5.616;2022-10-31T12:15:19;101358.66;;;17.59;100.00
64544;BME280;50936;51.660;5.616;2022-10-31T12:51:00;101268.13;;;18.13;100.00
64544;BME280;50936;51.660;5.616;2022-10-31T12:53:51;101250.00;;;18.21;100.00
64544;BME280;50936;51.660;5.616;2022-10-31T12:59:38;101243.94;;;18.27;100.00
64544;BME280;50936;51.660;5.616;2022-10-31T13:02:21;101232.75;;;18.21;100.00
64544;BME280;50936;51.660;5.616;2022-10-31T13:04:57;101226.97;;;18.24;100.00
64544;BME280;50936;51.660;5.616;2022-10-31T13:07:38;101220.31;;;18.36;100.00
64544;BME280;50936;51.660;5.616;2022-10-31T13:13:22;101196.69;;;18.82;98.02
64544;BME280;50936;51.660;5.616;2022-10-31T13:16:25;101193.03;;;18.92;95.40
64544;BME280;50936;51.660;5.616;2022-10-31T13:19:10;101187.19;;;18.87;95.38
64544;BME280;50936;51.660;5.616;2022-10-31T13:25:03;101177.25;;;18.85;95.96
64544;BME280;50936;51.660;5.616;2022-10-31T13:28:03;101176.31;;;18.95;94.17
64544;BME280;50936;51.660;5.616;2022-10-31T13:30:40;101170.22;;;19.01;93.11
64544;BME280;50936;51.660;5.616;2022-10-31T13:38:54;101142.66;;;18.57;94.21
64544;BME280;50936;51.660;5.616;2022-10-31T13:41:53;101146.63;;;18.35;94.27
64544;BME280;50936;51.660;5.616;2022-10-31T13:44:35;101142.09;;;18.16;94.53
64544;BME280;50936;51.660;5.616;2022-10-31T13:47:38;101136.69;;;17.96;94.63
64544;BME280;50936;51.660;5.616;2022-10-31T13:50:33;101139.00;;;17.81;95.74
64544;BME280;50936;51.660;5.616;2022-10-31T13:53:10;101136.84;;;17.75;96.57
64544;BME280;50936;51.660;5.616;2022-10-31T13:55:43;101134.13;;;17.75;97.92
64544;BME280;50936;51.660;5.616;2022-10-31T14:01:21;101126.59;;;18.06;98.83
64544;BME280;50936;51.660;5.616;2022-10-31T14:04:07;101111.56;;;18.30;97.63
64544;BME280;50936;51.660;5.616;2022-10-31T14:17:55;101105.66;;;18.25;95.18
64544;BME280;50936;51.660;5.616;2022-10-31T14:20:32;101091.88;;;18.17;95.97
64544;BME280;50936;51.660;5.616;2022-10-31T14:29:20;101081.19;;;17.76;98.79
64544;BME280;50936;51.660;5.616;2022-10-31T14:34:29;101070.31;;;17.66;100.00
64544;BME280;50936;51.660;5.616;2022-10-31T14:37:23;101067.16;;;17.61;100.00
64544;BME280;50936;51.660;5.616;2022-10-31T14:51:18;101040.03;;;17.40;100.00
64544;BME280;50936;51.660;5.616;2022-10-31T14:53:52;101046.78;;;17.36;100.00
64544;BME280;50936;51.660;5.616;2022-10-31T14:56:30;101041.31;;;17.36;100.00
64544;BME280;50936;51.660;5.616;2022-10-31T14:59:12;101053.41;;;17.34;100.00
64544;BME280;50936;51.660;5.616;2022-10-31T15:01:59;101045.06;;;17.35;100.00
64544;BME280;50936;51.660;5.616;2022-10-31T15:04:37;101040.63;;;17.24;100.00
64544;BME280;50936;51.660;5.616;2022-10-31T15:07:30;101035.88;;;17.26;100.00
64544;BME280;50936;51.660;5.616;2022-10-31T15:10:19;101016.78;;;17.26;100.00
64544;BME280;50936;51.660;5.616;2022-10-31T15:12:52;101012.88;;;17.29;100.00
64544;BME280;50936;51.660;5.616;2022-10-31T15:15:26;101006.56;;;17.28;100.00
64544;BME280;50936;51.660;5.616;2022-10-31T15:17:58;101007.28;;;17.30;100.00
64544;BME280;50936;51.660;5.616;2022-10-31T15:20:28;100995.38;;;17.31;100.00
64544;BME280;50936;51.660;5.616;2022-10-31T15:22:59;100982.56;;;17.32;100.00
64544;BME280;50936;51.660;5.616;2022-10-31T15:25:31;100985.56;;;17.29;100.00
64544;BME280;50936;51.660;5.616;2022-10-31T15:28:00;100974.84;;;17.27;100.00
64544;BME280;50936;51.660;5.616;2022-10-31T15:30:29;100963.50;;;17.22;100.00
64544;BME280;50936;51.660;5.616;2022-10-31T15:32:56;100966.66;;;17.18;100.00
64544;BME280;50936;51.660;5.616;2022-10-31T15:35:26;100956.03;;;17.15;100.00
64544;BME280;50936;51.660;5.616;2022-10-31T15:37:56;100955.47;;;17.11;100.00
64544;BME280;50936;51.660;5.616;2022-10-31T15:40:26;100952.59;;;17.03;100.00
64544;BME280;50936;51.660;5.616;2022-10-31T15:45:27;100945.88;;;16.87;100.00
64544;BME280;50936;51.660;5.616;2022-10-31T15:48:15;100938.53;;;16.78;100.00